createdAt,value
2018-06-04T00:04:01.869Z,94817.25
2018-06-04T00:06:29.258Z,94810.66
2018-06-04T00:08:55.605Z,94789.09
2018-06-04T00:11:22.191Z,94801.00
2018-06-04T00:13:48.553Z,94807.81
2018-06-04T00:16:14.944Z,94812.44
2018-06-04T00:18:41.366Z,94805.90
2018-06-04T00:21:07.752Z,94806.46
2018-06-04T00:23:34.166Z,94803.33
2018-06-04T00:26:00.556Z,94805.14
2018-06-04T00:28:26.992Z,94794.12
2018-06-04T00:30:53.365Z,94806.64
2018-06-04T00:33:19.730Z,94801.48
2018-06-04T00:35:46.157Z,94786.05
2018-06-04T00:38:12.522Z,94794.12
2018-06-04T00:40:38.946Z,94790.59
2018-06-04T00:43:05.326Z,94783.94
2018-06-04T00:45:31.677Z,94786.98
2018-06-04T00:47:58.044Z,94784.55
2018-06-04T00:50:24.524Z,94781.06
2018-06-04T00:52:50.983Z,94771.59
2018-06-04T00:55:17.372Z,94781.27
2018-06-04T00:57:43.792Z,94766.31
2018-06-04T01:00:10.148Z,94776.11
2018-06-04T01:02:36.487Z,94759.52
2018-06-04T01:05:02.871Z,94766.17
2018-06-04T01:07:29.303Z,94765.69
2018-06-04T01:09:55.720Z,94780.84
2018-06-04T01:12:22.092Z,94777.09
2018-06-04T01:14:48.416Z,94777.18
2018-06-04T01:17:14.840Z,94780.70
2018-06-04T01:19:41.161Z,94773.54
2018-06-04T01:22:07.496Z,94770.48
2018-06-04T01:24:33.884Z,94778.55
2018-06-04T01:27:00.318Z,94780.63
2018-06-04T01:29:26.727Z,94767.08
2018-06-04T01:31:53.110Z,94768.17
2018-06-04T01:34:19.493Z,94759.66
2018-06-04T01:36:53.265Z,94761.68
2018-06-04T01:39:19.625Z,94735.44
2018-06-04T01:41:46.042Z,94761.16
2018-06-04T01:44:12.411Z,94762.86
2018-06-04T01:46:38.783Z,94756.99
2018-06-04T01:49:05.155Z,94744.88
2018-06-04T01:51:31.468Z,94760.06
2018-06-04T01:53:57.806Z,94756.26
2018-06-04T01:56:24.133Z,94747.08
2018-06-04T01:58:50.454Z,94744.15
2018-06-04T02:01:16.784Z,94748.08
2018-06-04T02:03:43.113Z,94749.72
2018-06-04T02:06:09.464Z,94748.98
2018-06-04T02:08:35.808Z,94742.39
2018-06-04T02:11:02.165Z,94759.41
2018-06-04T02:13:28.481Z,94754.27
2018-06-04T02:15:54.895Z,94753.19
2018-06-04T02:18:21.212Z,94753.34
2018-06-04T02:20:47.582Z,94758.28
2018-06-04T02:23:13.937Z,94758.61
2018-06-04T02:25:40.296Z,94754.68
2018-06-04T02:28:06.620Z,94754.59
2018-06-04T02:30:32.945Z,94755.62
2018-06-04T02:32:59.286Z,94757.11
2018-06-04T02:35:25.664Z,94756.23
2018-06-04T02:37:52.037Z,94752.26
2018-06-04T02:40:18.423Z,94747.27
2018-06-04T02:42:44.743Z,94758.30
2018-06-04T02:45:11.072Z,94761.23
2018-06-04T02:47:37.443Z,94767.63
2018-06-04T02:50:03.840Z,94768.13
2018-06-04T02:52:30.162Z,94775.67
2018-06-04T02:54:56.508Z,94774.17
2018-06-04T02:57:22.827Z,94771.13
2018-06-04T02:59:49.164Z,94770.88
2018-06-04T03:02:15.522Z,94759.38
2018-06-04T03:04:41.933Z,94772.00
2018-06-04T03:07:08.254Z,94770.81
2018-06-04T03:09:34.613Z,94769.07
2018-06-04T03:12:00.941Z,94772.84
2018-06-04T03:14:27.316Z,94781.44
2018-06-04T03:16:53.647Z,94777.41
2018-06-04T03:19:20.012Z,94772.73
2018-06-04T03:21:46.340Z,94786.45
2018-06-04T03:24:12.704Z,94776.79
2018-06-04T03:26:39.064Z,94771.48
2018-06-04T03:29:05.428Z,94777.83
2018-06-04T03:31:31.741Z,94779.69
2018-06-04T03:33:58.072Z,94784.48
2018-06-04T03:36:24.379Z,94784.12
2018-06-04T03:38:50.696Z,94780.41
2018-06-04T03:41:17.070Z,94797.31
2018-06-04T03:43:43.411Z,94788.05
2018-06-04T03:46:09.748Z,94799.59
2018-06-04T03:48:36.084Z,94784.28
2018-06-04T03:51:02.436Z,94804.28
2018-06-04T03:53:28.753Z,94799.91
2018-06-04T03:55:55.172Z,94803.20
2018-06-04T03:58:21.501Z,94789.58
2018-06-04T04:00:47.821Z,94805.47
2018-06-04T04:03:14.208Z,94785.36
2018-06-04T04:05:40.524Z,94788.66
2018-06-04T04:08:06.863Z,94789.22
2018-06-04T04:10:33.220Z,94778.05
2018-06-04T04:12:59.559Z,94809.59
2018-06-04T04:15:25.955Z,94810.87
2018-06-04T04:17:52.264Z,94779.94
2018-06-04T04:20:18.695Z,94810.83
2018-06-04T04:22:45.021Z,94804.70
2018-06-04T04:25:11.387Z,94790.31
2018-06-04T04:27:37.780Z,94802.26
2018-06-04T04:30:04.098Z,94806.19
2018-06-04T04:32:30.460Z,94803.67
2018-06-04T04:34:56.786Z,94787.60
2018-06-04T04:37:23.105Z,94791.66
2018-06-04T04:39:49.464Z,94789.36
2018-06-04T04:42:15.786Z,94803.97
2018-06-04T04:44:42.097Z,94766.69
2018-06-04T04:47:08.454Z,94795.87
2018-06-04T04:49:34.787Z,94788.96
2018-06-04T04:52:01.104Z,94802.78
2018-06-04T04:54:27.470Z,94791.81
2018-06-04T04:56:53.789Z,94798.50
2018-06-04T04:59:20.176Z,94779.05
2018-06-04T05:01:46.515Z,94761.34
2018-06-04T05:04:13.092Z,94792.02
2018-06-04T05:06:39.502Z,94756.30
2018-06-04T05:09:05.962Z,94796.45
2018-06-04T05:11:33.038Z,94796.04
2018-06-04T05:13:59.428Z,94795.24
2018-06-04T05:16:25.752Z,94796.21
2018-06-04T05:18:52.174Z,94797.70
2018-06-04T05:21:18.553Z,94776.83
2018-06-04T05:23:44.897Z,94795.00
2018-06-04T05:26:11.293Z,94795.00
2018-06-04T05:28:37.676Z,94795.41
2018-06-04T05:31:04.074Z,94802.29
2018-06-04T05:33:30.686Z,94798.91
2018-06-04T05:35:57.111Z,94798.99
2018-06-04T05:38:23.530Z,94803.87
2018-06-04T05:40:49.902Z,94794.02
2018-06-04T05:43:16.724Z,94784.65
2018-06-04T05:45:43.155Z,94788.94
2018-06-04T05:48:09.548Z,94807.80
2018-06-04T05:50:35.952Z,94794.67
2018-06-04T05:53:02.358Z,94787.07
2018-06-04T05:55:28.796Z,94808.64
2018-06-04T05:57:55.278Z,94801.14
2018-06-04T06:00:22.517Z,94789.18
2018-06-04T06:02:49.575Z,94789.86
2018-06-04T06:05:16.094Z,94773.07
2018-06-04T06:07:42.531Z,94788.10
2018-06-04T06:10:08.997Z,94787.13
2018-06-04T06:12:36.874Z,94794.23
2018-06-04T06:15:03.437Z,94787.55
2018-06-04T06:17:29.868Z,94782.99
2018-06-04T06:19:56.504Z,94784.00
2018-06-04T06:22:23.031Z,94769.79
2018-06-04T06:24:49.564Z,94790.38
2018-06-04T06:29:47.465Z,94753.88
2018-06-04T06:32:14.308Z,94758.64
2018-06-04T06:34:40.845Z,94773.23
2018-06-04T06:42:13.545Z,94747.49
2018-06-04T06:44:40.266Z,94765.34
2018-06-04T06:47:06.751Z,94763.58
2018-06-04T06:52:07.094Z,94765.75
2018-06-04T06:54:33.716Z,94750.39
2018-06-04T06:57:01.035Z,94756.61
2018-06-04T06:59:28.052Z,94759.48
2018-06-04T07:01:54.962Z,94745.06
2018-06-04T07:04:22.020Z,94760.27
2018-06-04T07:06:48.845Z,94750.08
2018-06-04T07:09:16.193Z,94741.59
2018-06-04T07:11:43.258Z,94730.23
2018-06-04T07:14:10.541Z,94743.73
2018-06-04T07:16:37.180Z,94736.28
2018-06-04T07:19:04.147Z,94730.86
2018-06-04T07:21:30.948Z,94724.11
2018-06-04T07:23:57.553Z,94739.16
2018-06-04T07:26:24.182Z,94731.58
2018-06-04T07:28:51.185Z,94733.69
2018-06-04T07:31:17.594Z,94745.83
2018-06-04T07:33:44.004Z,94739.87
2018-06-04T07:36:10.429Z,94722.48
2018-06-04T07:38:36.858Z,94735.22
2018-06-04T07:41:03.303Z,94717.34
2018-06-04T07:43:29.806Z,94704.17
2018-06-04T07:45:56.187Z,94712.39
2018-06-04T07:48:22.867Z,94723.16
2018-06-04T07:50:51.237Z,94713.70
2018-06-04T07:53:17.682Z,94719.13
2018-06-04T07:55:44.386Z,94703.91
2018-06-04T07:58:10.813Z,94724.75
2018-06-04T08:00:39.254Z,94716.09
2018-06-04T08:03:05.938Z,94720.39
2018-06-04T08:05:32.387Z,94713.86
2018-06-04T08:07:58.797Z,94715.86
2018-06-04T08:10:25.427Z,94694.85
2018-06-04T08:12:52.009Z,94712.46
2018-06-04T08:15:18.452Z,94700.92
2018-06-04T08:17:45.068Z,94685.17
2018-06-04T08:20:11.761Z,94701.56
2018-06-04T08:25:00.060Z,94703.91
2018-06-04T08:27:26.495Z,94701.03
2018-06-04T08:29:53.523Z,94705.80
2018-06-04T08:32:20.085Z,94679.83
2018-06-04T08:34:46.478Z,94709.73
2018-06-04T08:37:13.009Z,94702.63
2018-06-04T08:39:39.454Z,94695.91
2018-06-04T08:42:05.828Z,94687.67
2018-06-04T08:44:32.245Z,94677.95
2018-06-04T08:46:58.662Z,94670.55
2018-06-04T08:49:25.292Z,94678.31
2018-06-04T08:51:51.764Z,94668.27
2018-06-04T08:54:19.011Z,94679.85
2018-06-04T08:56:45.678Z,94678.02
2018-06-04T08:59:12.259Z,94682.31
2018-06-04T09:01:38.784Z,94666.30
2018-06-04T09:04:05.277Z,94669.23
2018-06-04T09:06:32.277Z,94669.00
2018-06-04T09:08:58.650Z,94672.55
2018-06-04T09:11:25.292Z,94664.44
2018-06-04T09:13:51.927Z,94645.23
2018-06-04T09:16:18.387Z,94656.02
2018-06-04T09:18:44.798Z,94652.54
2018-06-04T09:21:11.262Z,94653.00
2018-06-04T09:23:37.660Z,94646.17
2018-06-04T09:26:04.126Z,94656.69
2018-06-04T09:28:30.563Z,94639.44
2018-06-04T09:30:57.076Z,94641.53
2018-06-04T09:33:23.510Z,94628.66
2018-06-04T09:35:49.971Z,94642.20
2018-06-04T09:38:16.539Z,94645.13
2018-06-04T09:40:43.013Z,94643.13
2018-06-04T09:43:09.428Z,94623.70
2018-06-04T09:45:35.871Z,94610.95
2018-06-04T09:48:02.303Z,94628.09
2018-06-04T09:50:28.697Z,94625.02
2018-06-04T09:52:55.423Z,94616.95
2018-06-04T09:55:21.882Z,94614.05
2018-06-04T09:57:48.270Z,94614.13
2018-06-04T10:00:14.688Z,94613.88
2018-06-04T10:02:41.299Z,94609.40
2018-06-04T10:05:07.926Z,94610.56
2018-06-04T10:07:34.393Z,94604.58
2018-06-04T10:10:00.855Z,94612.27
2018-06-04T10:12:27.411Z,94607.73
2018-06-04T10:14:53.871Z,94622.55
2018-06-04T10:17:20.393Z,94607.91
2018-06-04T10:19:47.110Z,94620.34
2018-06-04T10:22:13.736Z,94610.50
2018-06-04T10:24:40.182Z,94614.91
2018-06-04T10:27:06.604Z,94610.59
2018-06-04T10:29:32.987Z,94613.70
2018-06-04T10:31:59.440Z,94602.70
2018-06-04T10:34:25.921Z,94608.04
2018-06-04T10:36:54.693Z,94601.56
2018-06-04T10:39:21.141Z,94595.45
2018-06-04T10:41:47.525Z,94601.31
2018-06-04T10:44:14.707Z,94603.32
2018-06-04T10:46:41.144Z,94608.00
2018-06-04T10:49:07.532Z,94616.20
2018-06-04T10:51:34.017Z,94617.17
2018-06-04T10:54:00.471Z,94628.16
2018-06-04T10:56:26.960Z,94619.81
2018-06-04T10:58:58.919Z,94605.69
2018-06-04T11:01:26.561Z,94605.39
2018-06-04T11:06:32.475Z,94598.02
2018-06-04T11:08:59.071Z,94592.65
2018-06-04T11:11:25.596Z,94593.43
2018-06-04T11:13:52.155Z,94590.43
2018-06-04T11:16:19.494Z,94588.15
2018-06-04T11:18:46.009Z,94592.69
2018-06-04T11:21:12.480Z,94578.33
2018-06-04T11:23:38.977Z,94573.31
2018-06-04T11:26:05.643Z,94566.48
2018-06-04T11:28:32.038Z,94576.59
2018-06-04T11:30:58.418Z,94570.33
2018-06-04T11:33:24.848Z,94560.11
2018-06-04T11:35:51.256Z,94556.90
2018-06-04T11:38:17.668Z,94553.70
2018-06-04T11:40:44.172Z,94566.93
2018-06-04T11:43:10.689Z,94546.23
2018-06-04T11:45:37.140Z,94550.06
2018-06-04T11:48:03.533Z,94551.48
2018-06-04T11:50:29.948Z,94545.08
2018-06-04T11:52:56.314Z,94533.19
2018-06-04T11:55:22.741Z,94544.13
2018-06-04T11:57:49.350Z,94535.17
2018-06-04T12:00:16.097Z,94524.88
2018-06-04T12:02:42.498Z,94533.12
2018-06-04T12:05:09.187Z,94536.35
2018-06-04T12:07:36.076Z,94533.05
2018-06-04T12:10:02.453Z,94530.98
2018-06-04T12:12:28.904Z,94520.23
2018-06-04T12:14:55.436Z,94515.53
2018-06-04T12:17:21.865Z,94511.91
2018-06-04T12:19:48.343Z,94512.27
2018-06-04T12:22:14.909Z,94492.91
2018-06-04T12:24:41.306Z,94491.34
2018-06-04T12:27:07.685Z,94494.80
2018-06-04T12:29:34.066Z,94499.00
2018-06-04T12:32:00.494Z,94490.36
2018-06-04T12:34:26.894Z,94485.45
2018-06-04T12:36:53.464Z,94475.97
2018-06-04T12:39:19.884Z,94462.55
2018-06-04T12:41:46.237Z,94470.83
2018-06-04T12:44:12.818Z,94466.81
2018-06-04T12:46:39.195Z,94454.17
2018-06-04T12:49:05.869Z,94448.17
2018-06-04T12:51:32.493Z,94442.05
2018-06-04T12:53:59.017Z,94428.80
2018-06-04T12:56:25.690Z,94440.85
2018-06-04T12:58:52.189Z,94440.45
2018-06-04T13:01:18.589Z,94433.16
2018-06-04T13:06:18.252Z,94443.85
2018-06-04T13:08:44.676Z,94420.62
2018-06-04T13:11:11.040Z,94427.50
2018-06-04T13:13:37.430Z,94433.91
2018-06-04T13:16:03.813Z,94433.66
2018-06-04T13:18:30.209Z,94448.25
2018-06-04T13:20:56.608Z,94438.94
2018-06-04T13:23:23.064Z,94425.12
2018-06-04T13:25:49.756Z,94438.88
2018-06-04T13:28:16.391Z,94431.63
2018-06-04T13:30:42.856Z,94424.49
2018-06-04T13:33:09.438Z,94425.72
2018-06-04T13:35:35.800Z,94421.25
2018-06-04T13:38:02.330Z,94417.37
2018-06-04T13:40:28.723Z,94415.63
2018-06-04T13:42:55.185Z,94417.95
2018-06-04T13:45:21.701Z,94423.70
2018-06-04T13:47:48.155Z,94420.81
2018-06-04T13:50:14.580Z,94411.66
2018-06-04T13:52:41.090Z,94404.35
2018-06-04T13:55:07.767Z,94403.91
2018-06-04T13:57:34.166Z,94405.06
2018-06-04T14:00:00.547Z,94401.33
2018-06-04T14:02:27.002Z,94400.88
2018-06-04T14:04:53.376Z,94398.63
2018-06-04T14:07:19.776Z,94401.22
2018-06-04T14:09:46.246Z,94403.77
2018-06-04T14:12:12.635Z,94403.05
2018-06-04T14:14:38.977Z,94403.27
2018-06-04T14:17:05.423Z,94391.83
2018-06-04T14:19:31.771Z,94398.00
2018-06-04T14:21:58.211Z,94410.33
2018-06-04T14:24:24.648Z,94405.86
2018-06-04T14:26:51.244Z,94409.70
2018-06-04T14:29:17.613Z,94406.94
2018-06-04T14:31:44.131Z,94411.75
2018-06-04T14:34:10.491Z,94416.94
2018-06-04T14:36:36.840Z,94419.42
2018-06-04T14:39:03.217Z,94410.77
2018-06-04T14:41:29.569Z,94399.70
2018-06-04T14:43:55.963Z,94404.77
2018-06-04T14:46:22.388Z,94401.67
2018-06-04T14:48:48.762Z,94395.55
2018-06-04T14:51:15.265Z,94397.63
2018-06-04T14:53:41.765Z,94395.98
2018-06-04T14:56:08.270Z,94401.20
2018-06-04T14:58:34.688Z,94399.66
2018-06-04T15:01:01.083Z,94385.97
2018-06-04T15:03:27.586Z,94390.98
2018-06-04T15:05:54.009Z,94376.17
2018-06-04T15:08:20.361Z,94372.73
2018-06-04T15:10:46.771Z,94373.14
2018-06-04T15:13:13.307Z,94371.53
2018-06-04T15:15:39.707Z,94368.06
2018-06-04T15:18:06.049Z,94356.14
2018-06-04T15:23:04.832Z,94346.98
2018-06-04T15:25:32.261Z,94349.22
2018-06-04T15:27:58.706Z,94331.45
2018-06-04T15:30:25.229Z,94330.73
2018-06-04T15:32:51.618Z,94324.98
2018-06-04T15:35:17.992Z,94324.48
2018-06-04T15:37:44.399Z,94311.20
2018-06-04T15:40:10.727Z,94325.19
2018-06-04T15:42:37.115Z,94331.59
2018-06-04T15:45:03.548Z,94331.91
2018-06-04T15:47:29.965Z,94341.78
2018-06-04T15:49:56.296Z,94360.78
2018-06-04T15:52:22.633Z,94359.94
2018-06-04T15:54:48.997Z,94365.42
2018-06-04T15:57:15.369Z,94360.72
2018-06-04T15:59:41.706Z,94361.09
2018-06-04T16:02:08.032Z,94366.92
2018-06-04T16:04:34.387Z,94366.88
2018-06-04T16:07:00.804Z,94369.50
2018-06-04T16:09:27.244Z,94363.58
2018-06-04T16:11:53.616Z,94364.77
2018-06-04T16:14:19.996Z,94373.28
2018-06-04T16:16:46.351Z,94365.45
2018-06-04T16:19:12.700Z,94365.96
2018-06-04T16:21:39.093Z,94364.97
2018-06-04T16:24:05.421Z,94364.56
2018-06-04T16:26:31.824Z,94368.82
2018-06-04T16:28:58.249Z,94366.88
2018-06-04T16:31:24.647Z,94374.64
2018-06-04T16:33:51.015Z,94368.44
2018-06-04T16:36:17.335Z,94374.80
2018-06-04T16:38:43.739Z,94378.95
2018-06-04T16:41:10.091Z,94375.89
2018-06-04T16:43:36.429Z,94379.67
2018-06-04T16:46:02.760Z,94368.70
2018-06-04T16:48:29.082Z,94385.86
2018-06-04T16:50:55.514Z,94385.30
2018-06-04T16:53:21.904Z,94388.83
2018-06-04T16:55:48.328Z,94389.30
2018-06-04T16:58:14.672Z,94402.62
2018-06-04T17:00:41.064Z,94407.75
2018-06-04T17:03:07.415Z,94407.38
2018-06-04T17:05:33.742Z,94413.48
2018-06-04T17:08:00.171Z,94418.47
2018-06-04T17:10:26.495Z,94417.52
2018-06-04T17:12:52.950Z,94426.61
2018-06-04T17:15:19.306Z,94421.80
2018-06-04T17:17:45.702Z,94417.61
2018-06-04T17:20:12.032Z,94416.11
2018-06-04T17:22:38.462Z,94410.32
2018-06-04T17:25:04.921Z,94417.51
2018-06-04T17:27:31.267Z,94421.09
2018-06-04T17:29:57.756Z,94431.61
2018-06-04T17:32:24.136Z,94427.28
2018-06-04T17:34:50.507Z,94432.19
2018-06-04T17:37:16.841Z,94445.09
2018-06-04T17:39:43.167Z,94451.43
2018-06-04T17:42:09.536Z,94454.97
2018-06-04T17:44:35.905Z,94462.44
2018-06-04T17:47:02.220Z,94469.69
2018-06-04T17:49:28.737Z,94468.02
2018-06-04T17:51:55.238Z,94467.34
2018-06-04T17:54:21.661Z,94463.86
2018-06-04T17:56:48.128Z,94471.15
2018-06-04T17:59:14.483Z,94461.52
2018-06-04T18:01:40.916Z,94467.41
2018-06-04T18:04:07.364Z,94467.41
2018-06-04T18:06:33.688Z,94469.14
2018-06-04T18:09:00.036Z,94465.48
2018-06-04T18:11:26.387Z,94467.54
2018-06-04T18:13:52.728Z,94473.45
2018-06-04T18:16:19.090Z,94477.16
2018-06-04T18:18:45.426Z,94477.81
2018-06-04T18:21:11.956Z,94486.69
2018-06-04T18:23:38.334Z,94483.27
2018-06-04T18:26:04.664Z,94485.70
2018-06-04T18:28:31.038Z,94485.05
2018-06-04T18:30:57.480Z,94495.09
2018-06-04T18:33:23.851Z,94495.45
2018-06-04T18:35:50.176Z,94503.08
2018-06-04T18:38:16.650Z,94500.86
2018-06-04T18:40:42.999Z,94505.33
2018-06-04T18:43:09.432Z,94504.67
2018-06-04T18:45:35.814Z,94507.67
2018-06-04T18:48:02.149Z,94514.16
2018-06-04T18:50:28.636Z,94517.85
2018-06-04T18:52:55.023Z,94523.74
2018-06-04T18:55:21.417Z,94531.22
2018-06-04T18:57:47.779Z,94526.22
2018-06-04T19:00:14.188Z,94540.86
2018-06-04T19:02:40.614Z,94539.45
2018-06-04T19:05:07.021Z,94545.16
2018-06-04T19:07:33.396Z,94556.67
2018-06-04T19:09:59.867Z,94561.28
2018-06-04T19:12:26.272Z,94562.73
2018-06-04T19:14:52.647Z,94565.91
2018-06-04T19:17:19.001Z,94568.33
2018-06-04T19:19:45.337Z,94568.04
2018-06-04T19:22:11.677Z,94571.91
2018-06-04T19:24:38.068Z,94574.03
2018-06-04T19:27:04.399Z,94573.39
2018-06-04T19:29:31.736Z,94584.45
2018-06-04T19:31:58.192Z,94580.26
2018-06-04T19:34:24.672Z,94585.19
2018-06-04T19:36:51.035Z,94578.80
2018-06-04T19:39:17.523Z,94590.02
2018-06-04T19:41:43.831Z,94586.97
2018-06-04T19:44:10.270Z,94583.02
2018-06-04T19:46:36.644Z,94601.33
2018-06-04T19:49:02.974Z,94589.24
2018-06-04T19:51:29.328Z,94577.31
2018-06-04T19:53:55.650Z,94567.52
2018-06-04T19:56:22.047Z,94561.88
2018-06-04T19:58:48.471Z,94553.50
2018-06-04T20:01:14.828Z,94545.99
2018-06-04T20:03:41.195Z,94528.53
2018-06-04T20:06:07.537Z,94544.94
2018-06-04T20:08:33.880Z,94553.19
2018-06-04T20:11:00.283Z,94551.33
2018-06-04T20:13:26.624Z,94547.06
2018-06-04T20:15:52.954Z,94546.81
2018-06-04T20:18:19.315Z,94542.34
2018-06-04T20:20:45.650Z,94536.05
2018-06-04T20:23:12.074Z,94534.31
2018-06-04T20:25:38.446Z,94537.88
2018-06-04T20:28:04.792Z,94527.59
2018-06-04T20:30:31.216Z,94533.30
2018-06-04T20:32:57.548Z,94535.87
2018-06-04T20:35:23.869Z,94531.52
2018-06-04T20:37:50.304Z,94531.72
2018-06-04T20:40:16.627Z,94541.98
2018-06-04T20:42:42.957Z,94548.11
2018-06-04T20:45:09.289Z,94544.58
2018-06-04T20:47:35.703Z,94534.11
2018-06-04T20:50:02.056Z,94535.70
2018-06-04T20:52:28.435Z,94531.13
2018-06-04T20:54:54.810Z,94534.02
2018-06-04T20:57:21.192Z,94537.65
2018-06-04T20:59:47.553Z,94528.59
2018-06-04T21:02:13.884Z,94526.37
2018-06-04T21:04:40.483Z,94533.47
2018-06-04T21:07:06.813Z,94530.02
2018-06-04T21:09:33.133Z,94533.29
2018-06-04T21:11:59.495Z,94538.07
2018-06-04T21:14:25.880Z,94526.66
2018-06-04T21:16:52.251Z,94532.60
2018-06-04T21:19:18.615Z,94529.02
2018-06-04T21:21:44.966Z,94529.84
2018-06-04T21:24:11.341Z,94534.53
2018-06-04T21:26:37.673Z,94527.20
2018-06-04T21:29:04.144Z,94518.55
2018-06-04T21:31:30.561Z,94511.66
2018-06-04T21:33:56.946Z,94508.55
2018-06-04T21:36:23.285Z,94513.67
2018-06-04T21:38:49.705Z,94515.03
2018-06-04T21:41:16.072Z,94519.01
2018-06-04T21:43:42.450Z,94527.37
2018-06-04T21:46:08.880Z,94520.30
2018-06-04T21:48:35.242Z,94523.14
2018-06-04T21:51:01.812Z,94517.09
2018-06-04T21:53:28.162Z,94511.17
2018-06-04T21:55:54.519Z,94513.22
2018-06-04T21:58:20.997Z,94509.76
2018-06-04T22:00:47.380Z,94509.41
2018-06-04T22:03:13.774Z,94521.98
2018-06-04T22:05:40.127Z,94523.70
2018-06-04T22:08:06.508Z,94522.41
2018-06-04T22:10:32.843Z,94512.36
2018-06-04T22:12:59.230Z,94509.70
2018-06-04T22:15:25.630Z,94508.00
2018-06-04T22:17:52.009Z,94502.72
2018-06-04T22:20:18.363Z,94501.36
2018-06-04T22:22:44.713Z,94490.72
2018-06-04T22:25:11.143Z,94492.26
2018-06-04T22:27:37.508Z,94483.90
2018-06-04T22:30:03.902Z,94479.81
2018-06-04T22:32:30.279Z,94479.62
2018-06-04T22:34:56.614Z,94482.55
2018-06-04T22:37:22.977Z,94477.61
2018-06-04T22:39:49.465Z,94465.05
2018-06-04T22:42:15.801Z,94471.41
2018-06-04T22:44:42.185Z,94472.98
2018-06-04T22:47:08.552Z,94469.39
2018-06-04T22:49:35.046Z,94455.25
2018-06-04T22:52:01.415Z,94461.30
2018-06-04T22:54:28.560Z,94461.59
2018-06-04T22:56:55.017Z,94464.40
2018-06-04T22:59:21.339Z,94470.29
2018-06-04T23:01:47.726Z,94463.70
2018-06-04T23:04:14.220Z,94458.30
2018-06-04T23:06:40.601Z,94457.54
2018-06-04T23:09:06.917Z,94459.05
2018-06-04T23:11:33.276Z,94454.30
2018-06-04T23:13:59.622Z,94458.92
2018-06-04T23:16:26.044Z,94450.05
2018-06-04T23:18:52.425Z,94456.29
2018-06-04T23:21:18.897Z,94457.98
2018-06-04T23:23:45.223Z,94450.84
2018-06-04T23:26:11.551Z,94448.67
2018-06-04T23:28:37.935Z,94449.77
2018-06-04T23:31:04.264Z,94447.07
2018-06-04T23:33:30.818Z,94453.30
2018-06-04T23:35:57.188Z,94447.42
2018-06-04T23:38:23.507Z,94445.84
2018-06-04T23:40:49.879Z,94443.42
2018-06-04T23:43:16.214Z,94444.42
2018-06-04T23:45:42.566Z,94452.52
2018-06-04T23:48:08.940Z,94440.24
2018-06-04T23:50:35.266Z,94438.20
2018-06-04T23:53:01.641Z,94442.42
2018-06-04T23:55:27.974Z,94440.31
2018-06-04T23:57:54.522Z,94446.70
